createdAt,value
2022-12-06T00:01:46.943Z,20.33
2022-12-06T00:03:57.109Z,15.00
2022-12-06T00:06:05.334Z,17.67
2022-12-06T00:08:10.486Z,19.67
2022-12-06T00:10:16.447Z,19.10
2022-12-06T00:12:21.576Z,22.60
2022-12-06T00:14:27.736Z,19.48
2022-12-06T00:16:37.823Z,20.27
2022-12-06T00:18:45.030Z,18.02
2022-12-06T00:20:50.152Z,17.60
2022-12-06T00:22:55.234Z,17.10
2022-12-06T00:25:00.358Z,19.73
2022-12-06T00:27:05.469Z,16.90
2022-12-06T00:29:14.370Z,18.52
2022-12-06T00:31:23.528Z,19.02
2022-12-06T00:33:32.059Z,14.57
2022-12-06T00:35:37.255Z,15.32
2022-12-06T00:37:42.379Z,15.63
2022-12-06T00:39:47.519Z,18.23
2022-12-06T00:41:53.050Z,16.65
2022-12-06T00:43:58.528Z,14.52
2022-12-06T00:46:04.626Z,14.77
2022-12-06T00:48:09.885Z,13.95
2022-12-06T00:50:17.914Z,11.80
2022-12-06T00:52:23.059Z,13.20
2022-12-06T00:54:28.419Z,13.15
2022-12-06T00:56:33.834Z,11.07
2022-12-06T00:58:39.052Z,11.77
2022-12-06T01:00:44.936Z,11.63
2022-12-06T01:02:50.120Z,9.20
2022-12-06T01:04:55.300Z,11.13
2022-12-06T01:07:03.763Z,9.77
2022-12-06T01:09:12.478Z,11.90
2022-12-06T01:11:19.369Z,9.75
2022-12-06T01:13:24.791Z,10.05
2022-12-06T01:15:29.759Z,4.57
2022-12-06T01:17:34.938Z,5.60
2022-12-06T01:19:39.935Z,4.70
2022-12-06T01:21:44.898Z,4.47
2022-12-06T01:23:54.320Z,3.40
2022-12-06T01:25:59.267Z,4.63
2022-12-06T01:28:04.209Z,3.92
2022-12-06T01:30:10.946Z,5.30
2022-12-06T01:32:15.919Z,4.85
2022-12-06T01:34:20.985Z,4.07
2022-12-06T01:36:28.617Z,3.95
2022-12-06T01:38:33.771Z,5.03
2022-12-06T01:40:47.722Z,5.03
2022-12-06T01:42:52.683Z,5.35
2022-12-06T01:45:01.787Z,4.70
2022-12-06T01:47:07.676Z,5.25
2022-12-06T01:49:20.184Z,4.57
2022-12-06T01:51:26.082Z,7.75
2022-12-06T01:53:31.679Z,4.45
2022-12-06T01:55:41.739Z,4.95
2022-12-06T01:57:50.798Z,4.72
2022-12-06T01:59:55.887Z,3.75
2022-12-06T02:02:01.048Z,4.15
2022-12-06T02:04:07.416Z,4.60
2022-12-06T02:06:12.524Z,4.95
2022-12-06T02:08:19.661Z,4.65
2022-12-06T02:10:25.361Z,4.07
2022-12-06T02:12:30.638Z,4.13
2022-12-06T02:14:38.222Z,4.00
2022-12-06T02:19:14.200Z,3.60
2022-12-06T02:21:35.094Z,4.05
2022-12-06T02:24:04.577Z,3.58
2022-12-06T02:26:27.219Z,3.80
2022-12-06T02:29:12.329Z,3.08
2022-12-06T02:31:28.990Z,3.10
2022-12-06T02:33:40.697Z,2.55
2022-12-06T02:35:53.601Z,2.38
2022-12-06T02:38:11.445Z,2.70
2022-12-06T02:40:23.126Z,2.33
2022-12-06T02:42:32.637Z,2.42
2022-12-06T02:44:43.013Z,3.30
2022-12-06T02:46:53.659Z,1.90
2022-12-06T02:49:02.003Z,2.80
2022-12-06T02:51:11.969Z,2.60
2022-12-06T02:53:21.650Z,2.67
2022-12-06T02:55:27.649Z,2.88
2022-12-06T02:57:43.523Z,3.60
2022-12-06T02:59:55.721Z,2.20
2022-12-06T03:02:08.912Z,1.83
2022-12-06T03:04:47.993Z,1.92
2022-12-06T03:07:19.954Z,1.75
2022-12-06T03:09:46.330Z,1.45
2022-12-06T03:12:00.318Z,1.60
2022-12-06T03:14:14.501Z,1.80
2022-12-06T03:16:29.109Z,1.90
2022-12-06T03:18:46.317Z,3.72
2022-12-06T03:20:57.518Z,1.80
2022-12-06T03:23:08.406Z,2.40
2022-12-06T03:25:14.690Z,1.52
2022-12-06T03:27:22.552Z,2.42
2022-12-06T03:29:31.031Z,2.17
2022-12-06T03:31:41.257Z,3.05
2022-12-06T03:33:56.420Z,3.20
2022-12-06T03:36:02.326Z,2.05
2022-12-06T03:38:13.396Z,1.90
2022-12-06T03:40:24.542Z,2.42
2022-12-06T03:42:30.005Z,2.30
2022-12-06T03:44:37.378Z,2.55
2022-12-06T03:46:50.405Z,2.30
2022-12-06T03:49:04.498Z,2.60
2022-12-06T03:51:13.239Z,2.83
2022-12-06T03:53:20.373Z,3.00
2022-12-06T03:55:26.171Z,2.78
2022-12-06T03:57:31.234Z,2.20
2022-12-06T03:59:36.533Z,2.47
2022-12-06T04:01:42.810Z,2.60
2022-12-06T04:03:47.846Z,2.95
2022-12-06T04:05:55.671Z,2.30
2022-12-06T04:08:01.031Z,3.85
2022-12-06T04:10:07.400Z,3.03
2022-12-06T04:12:25.051Z,2.78
2022-12-06T04:19:06.698Z,2.28
2022-12-06T04:21:26.863Z,2.45
2022-12-06T04:23:34.431Z,2.72
2022-12-06T04:25:39.817Z,2.88
2022-12-06T04:27:57.277Z,2.75
2022-12-06T04:30:14.683Z,5.57
2022-12-06T04:32:32.100Z,2.63
2022-12-06T04:34:49.560Z,3.15
2022-12-06T04:37:09.868Z,4.00
2022-12-06T04:39:19.193Z,2.65
2022-12-06T04:41:38.954Z,2.90
2022-12-06T04:43:46.615Z,3.67
2022-12-06T04:47:58.779Z,4.40
2022-12-06T04:50:04.496Z,4.82
2022-12-06T04:52:13.510Z,3.92
2022-12-06T04:54:18.871Z,4.65
2022-12-06T04:56:24.544Z,4.78
2022-12-06T04:58:29.542Z,3.63
2022-12-06T05:00:34.786Z,3.85
2022-12-06T05:02:39.827Z,5.20
2022-12-06T05:04:44.887Z,3.88
2022-12-06T05:06:50.456Z,4.00
2022-12-06T05:08:58.518Z,3.05
2022-12-06T05:11:04.020Z,6.00
2022-12-06T05:13:10.497Z,4.07
2022-12-06T05:15:16.320Z,5.38
2022-12-06T05:17:21.326Z,4.55
2022-12-06T05:19:27.370Z,5.03
2022-12-06T05:21:32.379Z,3.97
2022-12-06T05:23:38.297Z,5.28
2022-12-06T05:25:46.378Z,5.10
2022-12-06T05:29:56.075Z,5.55
2022-12-06T05:32:01.122Z,7.25
2022-12-06T05:34:06.797Z,4.63
2022-12-06T05:36:14.933Z,8.40
2022-12-06T05:38:20.414Z,5.82
2022-12-06T05:40:25.980Z,4.90
2022-12-06T05:42:33.522Z,5.32
2022-12-06T05:46:43.922Z,5.50
2022-12-06T05:48:49.702Z,5.70
2022-12-06T05:50:55.185Z,4.90
2022-12-06T05:53:03.194Z,5.85
2022-12-06T05:55:09.196Z,6.63
2022-12-06T05:57:14.183Z,5.45
2022-12-06T05:59:23.415Z,6.55
2022-12-06T06:01:28.376Z,5.85
2022-12-06T06:03:33.457Z,5.85
2022-12-06T06:05:39.739Z,6.78
2022-12-06T06:07:45.122Z,7.22
2022-12-06T06:09:50.084Z,6.85
2022-12-06T06:11:55.251Z,7.05
2022-12-06T06:14:00.263Z,7.53
2022-12-06T06:16:09.284Z,8.60
2022-12-06T06:18:14.409Z,6.88
2022-12-06T06:20:19.374Z,6.47
2022-12-06T06:22:24.816Z,7.65
2022-12-06T06:24:29.772Z,8.15
2022-12-06T06:26:35.627Z,8.05
2022-12-06T06:28:40.627Z,8.85
2022-12-06T06:30:47.098Z,9.27
2022-12-06T06:32:54.788Z,8.75
2022-12-06T06:34:59.778Z,7.13
2022-12-06T06:37:04.724Z,7.82
2022-12-06T06:39:09.727Z,7.47
2022-12-06T06:41:15.256Z,8.40
2022-12-06T06:43:23.582Z,8.60
2022-12-06T06:45:29.249Z,7.50
2022-12-06T06:47:34.307Z,6.57
2022-12-06T06:49:42.030Z,9.13
2022-12-06T06:51:48.401Z,7.88
2022-12-06T06:53:53.418Z,7.30
2022-12-06T06:55:58.550Z,8.25
2022-12-06T06:58:03.943Z,11.15
2022-12-06T07:00:12.535Z,7.80
2022-12-06T07:02:19.665Z,10.05
2022-12-06T07:04:25.290Z,10.65
2022-12-06T07:06:32.904Z,10.10
2022-12-06T07:08:37.921Z,9.13
2022-12-06T07:10:48.593Z,8.93
2022-12-06T07:12:54.201Z,8.63
2022-12-06T07:14:59.594Z,9.80
2022-12-06T07:17:05.135Z,7.38
2022-12-06T07:19:10.724Z,8.25
2022-12-06T07:21:18.826Z,8.57
2022-12-06T07:23:26.386Z,10.45
2022-12-06T07:25:32.042Z,9.68
2022-12-06T07:27:37.511Z,8.07
2022-12-06T07:29:43.069Z,8.68
2022-12-06T07:31:48.063Z,11.88
2022-12-06T07:33:56.780Z,8.60
2022-12-06T07:36:17.152Z,8.98
2022-12-06T07:38:25.258Z,8.23
2022-12-06T07:41:02.818Z,8.25
2022-12-06T07:43:08.395Z,10.73
2022-12-06T07:45:13.031Z,9.00
2022-12-06T07:47:18.163Z,8.43
2022-12-06T07:49:23.122Z,8.38
2022-12-06T07:51:28.101Z,7.97
2022-12-06T07:53:36.088Z,8.35
2022-12-06T07:57:46.985Z,8.13
2022-12-06T07:59:52.517Z,8.13
2022-12-06T08:01:57.843Z,7.97
2022-12-06T08:04:04.081Z,6.85
2022-12-06T08:06:10.415Z,10.27
2022-12-06T08:08:15.494Z,8.90
2022-12-06T08:10:23.221Z,7.07
2022-12-06T08:12:28.453Z,8.65
2022-12-06T08:14:34.485Z,7.15
2022-12-06T08:16:39.458Z,7.22
2022-12-06T08:18:44.947Z,8.00
2022-12-06T08:20:50.512Z,6.90
2022-12-06T08:22:55.464Z,6.18
2022-12-06T08:25:00.631Z,7.35
2022-12-06T08:27:08.180Z,7.15
2022-12-06T08:29:13.419Z,8.50
2022-12-06T08:31:21.855Z,7.10
2022-12-06T08:33:28.252Z,7.35
2022-12-06T08:35:33.515Z,9.15
2022-12-06T08:37:38.479Z,8.73
2022-12-06T08:39:43.627Z,6.93
2022-12-06T08:42:03.767Z,7.65
2022-12-06T08:44:14.946Z,7.32
2022-12-06T08:46:19.920Z,7.60
2022-12-06T08:48:25.291Z,7.40
2022-12-06T08:50:30.425Z,7.38
2022-12-06T08:52:35.691Z,9.05
2022-12-06T08:54:42.102Z,8.60
2022-12-06T08:56:47.413Z,9.20
2022-12-06T08:58:53.058Z,6.32
2022-12-06T09:01:01.055Z,6.93
2022-12-06T09:03:06.000Z,10.73
2022-12-06T09:05:12.414Z,7.55
2022-12-06T09:07:18.008Z,9.23
2022-12-06T09:09:23.546Z,7.32
2022-12-06T09:11:29.459Z,8.80
2022-12-06T09:13:34.571Z,7.57
2022-12-06T09:15:41.571Z,7.28
2022-12-06T09:17:49.379Z,6.57
2022-12-06T09:19:54.342Z,8.73
2022-12-06T09:21:59.365Z,9.32
2022-12-06T09:24:04.847Z,8.10
2022-12-06T09:26:10.540Z,7.03
2022-12-06T09:28:16.827Z,9.32
2022-12-06T09:30:21.837Z,18.10
2022-12-06T09:32:26.833Z,24.52
2022-12-06T09:34:34.403Z,15.43
2022-12-06T09:36:42.276Z,9.68
2022-12-06T09:41:05.805Z,7.70
2022-12-06T09:43:34.408Z,9.00
2022-12-06T09:46:12.878Z,11.65
2022-12-06T09:48:52.133Z,8.75
2022-12-06T09:51:15.029Z,35.55
2022-12-06T09:53:27.831Z,10.43
2022-12-06T09:55:50.077Z,7.32
2022-12-06T09:58:03.882Z,7.25
2022-12-06T10:00:18.993Z,6.55
2022-12-06T10:02:59.904Z,9.38
2022-12-06T10:05:36.187Z,6.10
2022-12-06T10:07:56.715Z,6.60
2022-12-06T10:10:17.633Z,6.75
2022-12-06T10:12:41.486Z,6.40
2022-12-06T10:15:27.064Z,5.13
2022-12-06T10:17:46.596Z,6.95
2022-12-06T10:20:09.410Z,5.93
2022-12-06T10:22:29.808Z,6.65
2022-12-06T10:24:52.802Z,9.15
2022-12-06T10:27:05.275Z,6.93
2022-12-06T10:29:28.834Z,6.07
2022-12-06T10:31:46.676Z,8.05
2022-12-06T10:33:58.859Z,7.95
2022-12-06T10:36:07.865Z,7.03
2022-12-06T10:38:26.651Z,7.05
2022-12-06T10:40:42.130Z,7.75
2022-12-06T10:42:54.233Z,6.97
2022-12-06T10:45:25.824Z,6.85
2022-12-06T10:47:34.809Z,7.78
2022-12-06T10:49:51.667Z,6.32
2022-12-06T10:52:05.010Z,11.90
2022-12-06T10:54:24.095Z,11.40
2022-12-06T10:56:38.319Z,9.63
2022-12-06T10:58:51.796Z,14.02
2022-12-06T11:01:02.685Z,7.28
2022-12-06T11:03:17.078Z,8.38
2022-12-06T11:05:27.977Z,8.73
2022-12-06T11:07:41.935Z,5.60
2022-12-06T11:09:51.852Z,5.15
2022-12-06T11:11:59.582Z,5.75
2022-12-06T11:14:12.309Z,7.32
2022-12-06T11:16:23.037Z,6.85
2022-12-06T11:18:32.312Z,6.68
2022-12-06T11:20:43.721Z,6.57
2022-12-06T11:22:59.554Z,7.40
2022-12-06T11:25:14.129Z,6.53
2022-12-06T11:27:32.068Z,8.18
2022-12-06T11:29:37.515Z,6.68
2022-12-06T11:31:49.184Z,6.85
2022-12-06T11:33:54.503Z,8.57
2022-12-06T11:36:01.893Z,6.78
2022-12-06T11:38:10.304Z,6.57
2022-12-06T11:40:25.895Z,14.13
2022-12-06T11:42:33.494Z,8.00
2022-12-06T11:44:49.482Z,7.90
2022-12-06T11:46:59.500Z,7.30
2022-12-06T11:49:30.459Z,9.25
2022-12-06T11:51:35.518Z,6.35
2022-12-06T11:53:47.143Z,8.30
2022-12-06T11:55:56.254Z,8.90
2022-12-06T11:58:10.206Z,8.55
2022-12-06T12:00:21.569Z,7.13
2022-12-06T12:02:34.952Z,5.30
2022-12-06T12:04:43.634Z,5.50
2022-12-06T12:06:50.116Z,5.93
2022-12-06T12:09:07.738Z,6.85
2022-12-06T12:11:23.902Z,5.22
2022-12-06T12:13:48.534Z,5.22
2022-12-06T12:15:55.578Z,6.05
2022-12-06T12:18:02.608Z,5.25
2022-12-06T12:20:12.301Z,6.10
2022-12-06T12:22:26.685Z,5.22
2022-12-06T12:27:53.032Z,5.65
2022-12-06T12:30:35.425Z,5.75
2022-12-06T12:32:40.443Z,5.43
2022-12-06T12:34:45.389Z,8.30
2022-12-06T12:36:53.188Z,11.25
2022-12-06T12:41:24.772Z,4.53
2022-12-06T12:43:33.786Z,4.88
2022-12-06T12:45:43.117Z,4.60
2022-12-06T12:48:00.285Z,4.43
2022-12-06T12:50:20.361Z,4.70
2022-12-06T12:52:32.745Z,5.68
2022-12-06T12:54:40.085Z,4.72
2022-12-06T12:56:45.054Z,4.13
2022-12-06T12:58:54.504Z,8.70
2022-12-06T13:01:09.059Z,5.68
2022-12-06T13:03:49.500Z,5.03
2022-12-06T13:05:47.708Z,4.78
2022-12-06T13:07:58.443Z,6.85
2022-12-06T13:10:08.181Z,4.70
2022-12-06T13:12:21.815Z,5.32
2022-12-06T13:14:28.682Z,5.47
2022-12-06T13:16:39.090Z,5.75
2022-12-06T13:18:48.942Z,5.38
2022-12-06T13:20:58.185Z,5.18
2022-12-06T13:23:09.846Z,5.90
2022-12-06T13:25:15.031Z,6.65
2022-12-06T13:27:25.252Z,5.57
2022-12-06T13:29:36.406Z,5.72
2022-12-06T13:31:44.714Z,4.53
2022-12-06T13:33:55.233Z,5.75
2022-12-06T13:36:04.634Z,5.45
2022-12-06T13:38:28.489Z,5.90
2022-12-06T13:40:50.780Z,6.38
2022-12-06T13:42:56.122Z,5.50
2022-12-06T13:45:03.956Z,5.32
2022-12-06T13:49:49.794Z,6.13
2022-12-06T13:51:55.280Z,6.63
2022-12-06T13:54:36.119Z,5.60
2022-12-06T13:56:43.146Z,6.88
2022-12-06T13:58:58.629Z,6.07
2022-12-06T14:01:03.646Z,6.35
2022-12-06T14:03:56.889Z,5.50
2022-12-06T14:06:13.960Z,6.28
2022-12-06T14:08:20.263Z,7.30
2022-12-06T14:10:25.334Z,5.22
2022-12-06T14:12:31.996Z,4.72
2022-12-06T14:14:37.695Z,5.57
2022-12-06T14:16:46.435Z,4.28
2022-12-06T14:18:54.440Z,5.22
2022-12-06T14:21:01.904Z,5.60
2022-12-06T14:23:24.863Z,5.13
2022-12-06T14:25:32.437Z,5.32
2022-12-06T14:27:45.829Z,6.45
2022-12-06T14:30:06.875Z,4.82
2022-12-06T14:32:12.506Z,4.82
2022-12-06T14:34:30.337Z,4.75
2022-12-06T14:38:42.459Z,7.13
2022-12-06T14:41:00.942Z,7.07
2022-12-06T14:43:17.544Z,4.25
2022-12-06T14:45:22.922Z,5.10
2022-12-06T14:47:28.768Z,5.20
2022-12-06T14:49:50.723Z,6.57
2022-12-06T14:51:55.863Z,5.57
2022-12-06T14:54:18.478Z,6.18
2022-12-06T14:56:29.747Z,4.90
2022-12-06T14:58:37.430Z,4.57
2022-12-06T15:03:30.882Z,5.10
2022-12-06T15:05:42.146Z,8.20
2022-12-06T15:07:47.121Z,5.55
2022-12-06T15:09:52.109Z,5.75
2022-12-06T15:12:36.208Z,5.95
2022-12-06T15:14:52.417Z,5.32
2022-12-06T15:17:05.545Z,6.28
2022-12-06T15:19:14.919Z,5.25
2022-12-06T15:21:22.487Z,7.32
2022-12-06T15:23:39.391Z,4.97
2022-12-06T15:25:44.359Z,5.05
2022-12-06T15:27:49.374Z,5.57
2022-12-06T15:29:54.755Z,5.25
2022-12-06T15:31:59.802Z,6.80
2022-12-06T15:34:05.533Z,6.55
2022-12-06T15:36:12.764Z,7.10
2022-12-06T15:40:26.680Z,8.70
2022-12-06T15:42:31.679Z,8.73
2022-12-06T15:44:37.005Z,7.95
2022-12-06T15:46:42.059Z,12.70
2022-12-06T15:48:47.630Z,10.20
2022-12-06T15:50:53.047Z,13.95
2022-12-06T15:52:57.968Z,10.38
2022-12-06T15:55:05.509Z,10.00
2022-12-06T15:57:10.705Z,12.18
2022-12-06T15:59:16.566Z,12.50
2022-12-06T16:01:25.587Z,11.63
2022-12-06T16:03:30.683Z,11.25
2022-12-06T16:05:35.704Z,15.15
2022-12-06T16:07:40.948Z,11.07
2022-12-06T16:09:46.271Z,9.77
2022-12-06T16:11:54.236Z,10.18
2022-12-06T16:16:05.364Z,10.05
2022-12-06T16:18:10.442Z,9.27
2022-12-06T16:20:30.256Z,6.85
2022-12-06T16:22:47.806Z,9.10
2022-12-06T16:24:54.150Z,8.93
2022-12-06T16:27:01.737Z,8.25
2022-12-06T16:31:17.298Z,7.65
2022-12-06T16:33:25.302Z,8.48
2022-12-06T16:37:35.111Z,9.40
2022-12-06T16:39:40.108Z,8.63
2022-12-06T16:41:45.071Z,9.18
2022-12-06T16:43:53.318Z,7.85
2022-12-06T16:46:04.898Z,9.70
2022-12-06T16:48:16.964Z,12.30
2022-12-06T16:50:28.147Z,10.40
2022-12-06T16:52:33.877Z,12.65
2022-12-06T16:54:41.010Z,11.00
2022-12-06T16:56:46.955Z,12.82
2022-12-06T16:58:54.846Z,10.50
2022-12-06T17:01:04.624Z,11.20
2022-12-06T17:03:09.669Z,9.85
2022-12-06T17:05:23.018Z,8.55
2022-12-06T17:07:28.095Z,8.38
2022-12-06T17:09:33.088Z,9.48
2022-12-06T17:11:51.347Z,9.40
2022-12-06T17:13:58.920Z,7.75
2022-12-06T17:16:04.097Z,16.67
2022-12-06T17:18:09.347Z,11.52
2022-12-06T17:20:17.410Z,17.17
2022-12-06T17:24:29.229Z,13.68
2022-12-06T17:26:35.382Z,11.40
2022-12-06T17:28:40.445Z,13.65
2022-12-06T17:30:51.265Z,9.20
2022-12-06T17:32:56.381Z,9.23
2022-12-06T17:35:01.622Z,11.77
2022-12-06T17:37:06.944Z,9.30
2022-12-06T17:39:13.714Z,9.85
2022-12-06T17:41:32.050Z,9.75
2022-12-06T17:43:37.862Z,11.27
2022-12-06T17:45:42.809Z,13.30
2022-12-06T17:47:50.379Z,10.27
2022-12-06T17:49:56.491Z,11.35
2022-12-06T17:52:01.548Z,9.48
2022-12-06T17:54:09.361Z,10.90
2022-12-06T17:56:28.850Z,9.20
2022-12-06T17:58:33.839Z,8.40
2022-12-06T18:00:39.046Z,11.93
2022-12-06T18:02:44.280Z,8.00
2022-12-06T18:04:53.064Z,10.15
2022-12-06T18:06:58.174Z,9.75
2022-12-06T18:09:03.978Z,10.77
2022-12-06T18:11:09.153Z,7.95
2022-12-06T18:13:14.108Z,9.23
2022-12-06T18:15:31.735Z,9.90
2022-12-06T18:17:37.259Z,11.68
2022-12-06T18:19:46.866Z,9.75
2022-12-06T18:21:55.251Z,7.65
2022-12-06T18:24:20.958Z,9.38
2022-12-06T18:26:27.869Z,8.50
2022-12-06T18:28:33.227Z,8.18
2022-12-06T18:30:38.503Z,8.55
2022-12-06T18:32:43.507Z,8.55
2022-12-06T18:34:48.485Z,7.32
2022-12-06T18:36:56.029Z,7.78
2022-12-06T18:39:02.523Z,9.48
2022-12-06T18:41:09.779Z,7.63
2022-12-06T18:43:14.931Z,7.80
2022-12-06T18:45:20.130Z,7.22
2022-12-06T18:47:28.132Z,7.85
2022-12-06T18:49:33.448Z,8.38
2022-12-06T18:51:39.352Z,10.60
2022-12-06T18:53:47.560Z,9.27
2022-12-06T18:55:53.147Z,8.70
2022-12-06T18:58:00.280Z,7.70
2022-12-06T19:00:06.880Z,8.25
2022-12-06T19:02:13.809Z,10.32
2022-12-06T19:04:19.542Z,8.32
2022-12-06T19:06:26.902Z,8.80
2022-12-06T19:08:31.997Z,8.63
2022-12-06T19:10:40.035Z,6.78
2022-12-06T19:12:46.272Z,8.00
2022-12-06T19:14:51.451Z,8.18
2022-12-06T19:16:56.707Z,7.70
2022-12-06T19:19:05.354Z,9.27
2022-12-06T19:21:10.835Z,8.23
2022-12-06T19:23:15.914Z,9.73
2022-12-06T19:25:22.129Z,10.55
2022-12-06T19:27:32.217Z,8.23
2022-12-06T19:29:37.956Z,8.35
2022-12-06T19:31:43.199Z,8.80
2022-12-06T19:33:49.142Z,9.85
2022-12-06T19:36:01.053Z,8.73
2022-12-06T19:38:08.703Z,10.13
2022-12-06T19:40:17.272Z,9.65
2022-12-06T19:42:34.858Z,8.32
2022-12-06T19:44:45.500Z,11.18
2022-12-06T19:46:50.998Z,8.77
2022-12-06T19:48:58.581Z,8.77
2022-12-06T19:51:03.647Z,9.77
2022-12-06T19:53:09.095Z,9.05
2022-12-06T19:55:14.194Z,9.32
2022-12-06T19:57:22.243Z,8.55
2022-12-06T19:59:32.255Z,9.05
2022-12-06T20:01:41.344Z,8.77
2022-12-06T20:03:47.220Z,8.98
2022-12-06T20:05:52.418Z,10.10
2022-12-06T20:07:58.970Z,10.57
2022-12-06T20:10:09.966Z,9.77
2022-12-06T20:12:15.940Z,10.32
2022-12-06T20:14:22.139Z,11.80
2022-12-06T20:16:29.744Z,11.10
2022-12-06T20:18:37.448Z,12.23
2022-12-06T20:20:42.709Z,11.68
2022-12-06T20:22:47.904Z,11.95
2022-12-06T20:24:53.271Z,11.25
2022-12-06T20:26:58.992Z,11.07
2022-12-06T20:29:04.601Z,11.93
2022-12-06T20:31:14.877Z,12.60
2022-12-06T20:33:20.230Z,10.95
2022-12-06T20:35:31.797Z,12.73
2022-12-06T20:37:38.199Z,12.18
2022-12-06T20:39:45.758Z,12.50
2022-12-06T20:44:00.156Z,11.05
2022-12-06T20:46:13.180Z,15.77
2022-12-06T20:48:20.166Z,13.10
2022-12-06T20:50:29.850Z,11.80
2022-12-06T20:52:35.423Z,13.73
2022-12-06T20:54:41.189Z,11.02
2022-12-06T20:56:47.199Z,15.15
2022-12-06T20:58:56.967Z,13.45
2022-12-06T21:01:04.883Z,13.93
2022-12-06T21:05:15.021Z,16.42
2022-12-06T21:07:23.661Z,37.83
2022-12-06T21:09:30.231Z,38.42
2022-12-06T21:11:35.850Z,31.93
2022-12-06T21:13:41.696Z,32.53
2022-12-06T21:15:46.967Z,37.05
2022-12-06T21:17:52.332Z,21.63
2022-12-06T21:19:57.452Z,24.60
2022-12-06T21:22:07.907Z,24.48
2022-12-06T21:24:21.954Z,19.80
2022-12-06T21:26:27.127Z,20.10
2022-12-06T21:28:32.613Z,21.92
2022-12-06T21:30:39.249Z,21.40
2022-12-06T21:32:44.550Z,21.65
2022-12-06T21:34:50.192Z,20.98
2022-12-06T21:36:55.352Z,23.15
2022-12-06T21:39:01.290Z,22.80
2022-12-06T21:41:19.397Z,14.98
2022-12-06T21:43:25.027Z,19.27
2022-12-06T21:45:33.681Z,17.55
2022-12-06T21:47:38.806Z,18.83
2022-12-06T21:49:44.273Z,15.60
2022-12-06T21:51:49.365Z,14.93
2022-12-06T21:53:56.580Z,16.90
2022-12-06T21:56:01.873Z,14.23
2022-12-06T21:58:09.519Z,15.00
2022-12-06T22:00:17.022Z,14.88
2022-12-06T22:02:24.083Z,14.38
2022-12-06T22:04:29.471Z,15.25
2022-12-06T22:06:37.481Z,13.13
2022-12-06T22:08:45.201Z,18.65
2022-12-06T22:10:53.619Z,14.20
2022-12-06T22:12:58.689Z,15.02
2022-12-06T22:15:06.997Z,13.45
2022-12-06T22:17:12.764Z,15.27
2022-12-06T22:19:17.719Z,14.80
2022-12-06T22:21:26.041Z,14.75
2022-12-06T22:23:32.521Z,15.73
2022-12-06T22:25:42.172Z,16.80
2022-12-06T22:27:47.178Z,16.40
2022-12-06T22:29:54.061Z,15.90
2022-12-06T22:32:02.174Z,14.95
2022-12-06T22:34:07.710Z,15.20
2022-12-06T22:36:14.123Z,15.48
2022-12-06T22:38:19.205Z,15.57
2022-12-06T22:40:24.252Z,14.18
2022-12-06T22:42:29.635Z,17.42
2022-12-06T22:44:38.041Z,15.63
2022-12-06T22:46:43.625Z,15.90
2022-12-06T22:48:54.063Z,15.68
2022-12-06T22:51:08.711Z,16.55
2022-12-06T22:53:13.688Z,13.55
2022-12-06T22:55:19.214Z,15.82
2022-12-06T22:57:24.130Z,14.93
2022-12-06T22:59:29.123Z,17.60
2022-12-06T23:01:37.593Z,17.67
2022-12-06T23:03:43.663Z,15.80
2022-12-06T23:05:58.499Z,17.17
2022-12-06T23:08:03.580Z,17.50
2022-12-06T23:10:10.783Z,17.77
2022-12-06T23:12:15.713Z,17.20
2022-12-06T23:14:20.769Z,14.05
2022-12-06T23:16:28.927Z,16.65
2022-12-06T23:18:34.591Z,14.27
2022-12-06T23:20:39.509Z,17.73
2022-12-06T23:22:47.055Z,16.48
2022-12-06T23:26:58.606Z,16.00
2022-12-06T23:29:04.244Z,15.95
2022-12-06T23:31:12.628Z,16.90
2022-12-06T23:33:22.507Z,14.90
2022-12-06T23:35:27.830Z,14.50
2022-12-06T23:37:32.778Z,15.48
2022-12-06T23:39:40.566Z,16.40
2022-12-06T23:41:45.786Z,14.77
2022-12-06T23:43:51.556Z,15.73
2022-12-06T23:45:59.322Z,15.07
2022-12-06T23:48:07.543Z,14.88
2022-12-06T23:50:13.960Z,14.88
2022-12-06T23:52:18.911Z,15.50
2022-12-06T23:54:24.236Z,14.90
2022-12-06T23:56:35.802Z,13.82
2022-12-06T23:58:43.042Z,17.05
